Terminal Aerodrome Forecast
Issued by NWS Rapid City, SD

Current Version | Previous Version | Text Only | Print | Product List | Glossary On
Versions: 1 2 3 4 5 6 7 8 9 10 11 12 13 14 15 16 17
000
FTUS43 KUNR 240000 AAA
TAFRAP
TAF AMD
KRAP 240010Z 2400/2424 35018G30KT P6SM SCT080
     FM240200 33010KT P6SM SCT150
     FM241500 31020G30KT P6SM SCT150=

USA.gov is the U.S. government's official web portal to all federal, state and local government web resources and services.